sensor_id;sensor_type;location;lat;lon;timestamp;P1;durP1;ratioP1;P2;durP2;ratioP2
32216;SDS011;67098;51.140;4.088;2024-03-08T00:00:08;64.47;;;28.33;;
32216;SDS011;67098;51.140;4.088;2024-03-08T00:02:37;65.70;;;29.27;;
32216;SDS011;67098;51.140;4.088;2024-03-08T00:05:07;70.85;;;30.42;;
32216;SDS011;67098;51.140;4.088;2024-03-08T00:07:37;68.25;;;29.63;;
32216;SDS011;67098;51.140;4.088;2024-03-08T00:10:04;69.65;;;31.23;;
32216;SDS011;67098;51.140;4.088;2024-03-08T00:12:32;66.55;;;29.88;;
32216;SDS011;67098;51.140;4.088;2024-03-08T00:14:59;72.50;;;32.15;;
32216;SDS011;67098;51.140;4.088;2024-03-08T00:17:25;70.28;;;31.20;;
32216;SDS011;67098;51.140;4.088;2024-03-08T00:19:50;76.43;;;31.65;;
32216;SDS011;67098;51.140;4.088;2024-03-08T00:22:17;63.67;;;29.58;;
32216;SDS011;67098;51.140;4.088;2024-03-08T00:24:43;63.85;;;29.38;;
32216;SDS011;67098;51.140;4.088;2024-03-08T00:27:09;67.20;;;29.58;;
32216;SDS011;67098;51.140;4.088;2024-03-08T00:29:36;70.32;;;31.85;;
32216;SDS011;67098;51.140;4.088;2024-03-08T00:32:04;72.18;;;30.98;;
32216;SDS011;67098;51.140;4.088;2024-03-08T00:34:29;71.32;;;30.77;;
32216;SDS011;67098;51.140;4.088;2024-03-08T00:36:56;70.38;;;30.98;;
32216;SDS011;67098;51.140;4.088;2024-03-08T00:39:23;73.25;;;31.05;;
32216;SDS011;67098;51.140;4.088;2024-03-08T00:41:50;71.32;;;30.08;;
32216;SDS011;67098;51.140;4.088;2024-03-08T00:44:16;74.53;;;29.88;;
32216;SDS011;67098;51.140;4.088;2024-03-08T00:46:42;71.90;;;32.83;;
32216;SDS011;67098;51.140;4.088;2024-03-08T00:49:08;69.10;;;31.40;;
32216;SDS011;67098;51.140;4.088;2024-03-08T00:51:34;73.32;;;30.08;;
32216;SDS011;67098;51.140;4.088;2024-03-08T00:54:01;70.28;;;30.63;;
32216;SDS011;67098;51.140;4.088;2024-03-08T00:56:26;72.60;;;30.52;;
32216;SDS011;67098;51.140;4.088;2024-03-08T00:58:52;69.80;;;29.38;;
32216;SDS011;67098;51.140;4.088;2024-03-08T01:01:18;71.53;;;30.70;;
32216;SDS011;67098;51.140;4.088;2024-03-08T01:03:44;63.65;;;30.08;;
32216;SDS011;67098;51.140;4.088;2024-03-08T01:06:10;72.90;;;30.33;;
32216;SDS011;67098;51.140;4.088;2024-03-08T01:08:37;68.82;;;30.33;;
32216;SDS011;67098;51.140;4.088;2024-03-08T01:11:07;65.22;;;30.83;;
32216;SDS011;67098;51.140;4.088;2024-03-08T01:13:34;66.60;;;29.35;;
32216;SDS011;67098;51.140;4.088;2024-03-08T01:16:01;68.35;;;29.63;;
32216;SDS011;67098;51.140;4.088;2024-03-08T01:18:26;65.60;;;28.80;;
32216;SDS011;67098;51.140;4.088;2024-03-08T01:20:52;70.40;;;29.17;;
32216;SDS011;67098;51.140;4.088;2024-03-08T01:23:18;67.00;;;29.25;;
32216;SDS011;67098;51.140;4.088;2024-03-08T01:25:45;74.97;;;31.27;;
32216;SDS011;67098;51.140;4.088;2024-03-08T01:28:11;67.07;;;29.55;;
32216;SDS011;67098;51.140;4.088;2024-03-08T01:30:38;65.93;;;29.50;;
32216;SDS011;67098;51.140;4.088;2024-03-08T01:33:03;69.97;;;30.85;;
32216;SDS011;67098;51.140;4.088;2024-03-08T01:35:29;65.40;;;30.13;;
32216;SDS011;67098;51.140;4.088;2024-03-08T01:37:55;67.57;;;30.88;;
32216;SDS011;67098;51.140;4.088;2024-03-08T01:40:21;66.20;;;30.25;;
32216;SDS011;67098;51.140;4.088;2024-03-08T01:42:47;63.83;;;29.65;;
32216;SDS011;67098;51.140;4.088;2024-03-08T01:45:13;63.58;;;29.60;;
32216;SDS011;67098;51.140;4.088;2024-03-08T01:47:39;62.88;;;30.08;;
32216;SDS011;67098;51.140;4.088;2024-03-08T01:50:05;58.97;;;29.25;;
32216;SDS011;67098;51.140;4.088;2024-03-08T01:52:32;64.68;;;28.65;;
32216;SDS011;67098;51.140;4.088;2024-03-08T01:55:00;59.85;;;29.42;;
32216;SDS011;67098;51.140;4.088;2024-03-08T01:57:28;61.60;;;28.95;;
32216;SDS011;67098;51.140;4.088;2024-03-08T01:59:56;63.35;;;29.25;;
32216;SDS011;67098;51.140;4.088;2024-03-08T02:02:22;62.38;;;28.45;;
32216;SDS011;67098;51.140;4.088;2024-03-08T02:04:48;65.10;;;28.30;;
32216;SDS011;67098;51.140;4.088;2024-03-08T02:07:17;57.70;;;28.42;;
32216;SDS011;67098;51.140;4.088;2024-03-08T02:09:43;63.28;;;29.73;;
32216;SDS011;67098;51.140;4.088;2024-03-08T02:12:09;60.25;;;28.77;;
32216;SDS011;67098;51.140;4.088;2024-03-08T02:14:35;63.85;;;29.88;;
32216;SDS011;67098;51.140;4.088;2024-03-08T02:17:01;61.47;;;29.17;;
32216;SDS011;67098;51.140;4.088;2024-03-08T02:19:27;57.97;;;29.40;;
32216;SDS011;67098;51.140;4.088;2024-03-08T02:21:53;61.35;;;29.25;;
32216;SDS011;67098;51.140;4.088;2024-03-08T02:24:20;57.88;;;27.90;;
32216;SDS011;67098;51.140;4.088;2024-03-08T02:26:46;56.30;;;27.70;;
32216;SDS011;67098;51.140;4.088;2024-03-08T02:29:12;61.05;;;28.65;;
32216;SDS011;67098;51.140;4.088;2024-03-08T02:31:39;61.42;;;29.50;;
32216;SDS011;67098;51.140;4.088;2024-03-08T02:34:05;58.70;;;28.50;;
32216;SDS011;67098;51.140;4.088;2024-03-08T02:36:31;59.00;;;29.20;;
32216;SDS011;67098;51.140;4.088;2024-03-08T02:39:01;61.03;;;28.80;;
32216;SDS011;67098;51.140;4.088;2024-03-08T02:41:27;54.38;;;27.15;;
32216;SDS011;67098;51.140;4.088;2024-03-08T02:43:53;55.75;;;27.95;;
32216;SDS011;67098;51.140;4.088;2024-03-08T02:46:20;58.83;;;28.60;;
32216;SDS011;67098;51.140;4.088;2024-03-08T02:48:46;54.13;;;27.48;;
32216;SDS011;67098;51.140;4.088;2024-03-08T02:51:12;58.25;;;29.38;;
32216;SDS011;67098;51.140;4.088;2024-03-08T02:53:38;57.22;;;29.70;;
32216;SDS011;67098;51.140;4.088;2024-03-08T02:56:04;55.78;;;29.25;;
32216;SDS011;67098;51.140;4.088;2024-03-08T02:58:34;58.95;;;29.45;;
32216;SDS011;67098;51.140;4.088;2024-03-08T03:00:59;57.15;;;28.27;;
32216;SDS011;67098;51.140;4.088;2024-03-08T03:03:25;57.50;;;28.15;;
32216;SDS011;67098;51.140;4.088;2024-03-08T03:05:52;55.38;;;27.65;;
32216;SDS011;67098;51.140;4.088;2024-03-08T03:08:20;53.47;;;28.20;;
32216;SDS011;67098;51.140;4.088;2024-03-08T03:10:46;52.03;;;27.67;;
32216;SDS011;67098;51.140;4.088;2024-03-08T03:13:12;55.70;;;28.23;;
32216;SDS011;67098;51.140;4.088;2024-03-08T03:15:39;52.60;;;28.02;;
32216;SDS011;67098;51.140;4.088;2024-03-08T03:18:08;54.67;;;27.80;;
32216;SDS011;67098;51.140;4.088;2024-03-08T03:20:34;49.38;;;27.48;;
32216;SDS011;67098;51.140;4.088;2024-03-08T03:25:33;56.22;;;27.35;;
32216;SDS011;67098;51.140;4.088;2024-03-08T03:28:00;54.63;;;27.55;;
32216;SDS011;67098;51.140;4.088;2024-03-08T03:30:29;59.47;;;27.58;;
32216;SDS011;67098;51.140;4.088;2024-03-08T03:32:59;47.85;;;26.13;;
32216;SDS011;67098;51.140;4.088;2024-03-08T03:35:43;52.78;;;28.35;;
32216;SDS011;67098;51.140;4.088;2024-03-08T03:38:09;46.40;;;27.25;;
32216;SDS011;67098;51.140;4.088;2024-03-08T03:40:38;50.65;;;27.20;;
32216;SDS011;67098;51.140;4.088;2024-03-08T03:43:07;55.90;;;27.35;;
32216;SDS011;67098;51.140;4.088;2024-03-08T03:45:35;54.40;;;28.00;;
32216;SDS011;67098;51.140;4.088;2024-03-08T03:48:01;54.53;;;29.48;;
32216;SDS011;67098;51.140;4.088;2024-03-08T03:50:28;51.88;;;28.15;;
32216;SDS011;67098;51.140;4.088;2024-03-08T03:52:54;52.40;;;26.58;;
32216;SDS011;67098;51.140;4.088;2024-03-08T03:55:19;48.60;;;26.45;;
32216;SDS011;67098;51.140;4.088;2024-03-08T03:57:47;52.58;;;28.52;;
32216;SDS011;67098;51.140;4.088;2024-03-08T04:00:14;54.03;;;27.15;;
32216;SDS011;67098;51.140;4.088;2024-03-08T04:02:40;50.75;;;26.50;;
32216;SDS011;67098;51.140;4.088;2024-03-08T04:05:06;49.80;;;27.02;;
32216;SDS011;67098;51.140;4.088;2024-03-08T04:07:33;54.38;;;27.77;;
32216;SDS011;67098;51.140;4.088;2024-03-08T04:10:00;55.42;;;28.52;;
32216;SDS011;67098;51.140;4.088;2024-03-08T04:12:29;51.38;;;27.35;;
32216;SDS011;67098;51.140;4.088;2024-03-08T04:14:55;57.83;;;26.73;;
32216;SDS011;67098;51.140;4.088;2024-03-08T04:17:21;51.70;;;27.63;;
32216;SDS011;67098;51.140;4.088;2024-03-08T04:19:47;57.40;;;27.45;;
32216;SDS011;67098;51.140;4.088;2024-03-08T04:22:13;50.38;;;26.75;;
32216;SDS011;67098;51.140;4.088;2024-03-08T04:24:39;53.35;;;28.77;;
32216;SDS011;67098;51.140;4.088;2024-03-08T04:27:06;52.15;;;28.60;;
32216;SDS011;67098;51.140;4.088;2024-03-08T04:29:32;52.58;;;28.10;;
32216;SDS011;67098;51.140;4.088;2024-03-08T04:32:00;50.67;;;27.55;;
32216;SDS011;67098;51.140;4.088;2024-03-08T04:34:30;50.55;;;27.45;;
32216;SDS011;67098;51.140;4.088;2024-03-08T04:36:59;53.92;;;27.77;;
32216;SDS011;67098;51.140;4.088;2024-03-08T04:39:26;54.50;;;27.95;;
32216;SDS011;67098;51.140;4.088;2024-03-08T04:41:53;50.15;;;26.88;;
32216;SDS011;67098;51.140;4.088;2024-03-08T04:44:23;49.80;;;27.27;;
32216;SDS011;67098;51.140;4.088;2024-03-08T04:46:49;58.90;;;28.17;;
32216;SDS011;67098;51.140;4.088;2024-03-08T04:49:15;47.80;;;27.08;;
32216;SDS011;67098;51.140;4.088;2024-03-08T04:51:42;47.40;;;26.75;;
32216;SDS011;67098;51.140;4.088;2024-03-08T04:54:07;47.65;;;26.35;;
32216;SDS011;67098;51.140;4.088;2024-03-08T04:56:33;49.25;;;26.88;;
32216;SDS011;67098;51.140;4.088;2024-03-08T04:58:59;50.60;;;26.73;;
32216;SDS011;67098;51.140;4.088;2024-03-08T05:01:25;51.28;;;28.42;;
32216;SDS011;67098;51.140;4.088;2024-03-08T05:03:51;53.65;;;28.27;;
32216;SDS011;67098;51.140;4.088;2024-03-08T05:06:20;51.80;;;27.50;;
32216;SDS011;67098;51.140;4.088;2024-03-08T05:08:46;46.88;;;26.67;;
32216;SDS011;67098;51.140;4.088;2024-03-08T05:11:12;51.88;;;27.88;;
32216;SDS011;67098;51.140;4.088;2024-03-08T05:13:40;53.83;;;28.40;;
32216;SDS011;67098;51.140;4.088;2024-03-08T05:16:06;50.80;;;27.85;;
32216;SDS011;67098;51.140;4.088;2024-03-08T05:18:35;52.17;;;28.13;;
32216;SDS011;67098;51.140;4.088;2024-03-08T05:21:01;50.58;;;28.02;;
32216;SDS011;67098;51.140;4.088;2024-03-08T05:23:30;52.45;;;27.02;;
32216;SDS011;67098;51.140;4.088;2024-03-08T05:25:56;51.55;;;27.73;;
32216;SDS011;67098;51.140;4.088;2024-03-08T05:28:22;47.70;;;27.48;;
32216;SDS011;67098;51.140;4.088;2024-03-08T05:30:48;61.38;;;29.73;;
32216;SDS011;67098;51.140;4.088;2024-03-08T05:33:13;53.95;;;28.13;;
32216;SDS011;67098;51.140;4.088;2024-03-08T05:35:39;49.42;;;28.73;;
32216;SDS011;67098;51.140;4.088;2024-03-08T05:38:05;54.72;;;27.75;;
32216;SDS011;67098;51.140;4.088;2024-03-08T05:40:32;54.97;;;27.70;;
32216;SDS011;67098;51.140;4.088;2024-03-08T05:42:58;50.00;;;28.60;;
32216;SDS011;67098;51.140;4.088;2024-03-08T05:45:24;49.67;;;26.65;;
32216;SDS011;67098;51.140;4.088;2024-03-08T05:47:50;60.08;;;28.75;;
32216;SDS011;67098;51.140;4.088;2024-03-08T05:50:17;61.20;;;29.08;;
32216;SDS011;67098;51.140;4.088;2024-03-08T05:52:43;54.60;;;28.23;;
32216;SDS011;67098;51.140;4.088;2024-03-08T05:55:09;54.47;;;27.90;;
32216;SDS011;67098;51.140;4.088;2024-03-08T05:57:34;54.08;;;28.92;;
32216;SDS011;67098;51.140;4.088;2024-03-08T06:00:05;49.28;;;26.77;;
32216;SDS011;67098;51.140;4.088;2024-03-08T06:02:31;54.05;;;28.52;;
32216;SDS011;67098;51.140;4.088;2024-03-08T06:04:57;54.50;;;28.58;;
32216;SDS011;67098;51.140;4.088;2024-03-08T06:07:23;55.83;;;28.40;;
32216;SDS011;67098;51.140;4.088;2024-03-08T06:09:48;51.90;;;27.48;;
32216;SDS011;67098;51.140;4.088;2024-03-08T06:12:14;57.10;;;28.65;;
32216;SDS011;67098;51.140;4.088;2024-03-08T06:14:44;50.33;;;27.25;;
32216;SDS011;67098;51.140;4.088;2024-03-08T06:17:11;56.22;;;26.95;;
32216;SDS011;67098;51.140;4.088;2024-03-08T06:19:37;56.25;;;28.15;;
32216;SDS011;67098;51.140;4.088;2024-03-08T06:22:02;52.15;;;27.45;;
32216;SDS011;67098;51.140;4.088;2024-03-08T06:24:33;54.95;;;28.45;;
32216;SDS011;67098;51.140;4.088;2024-03-08T06:27:01;57.47;;;28.80;;
32216;SDS011;67098;51.140;4.088;2024-03-08T06:29:27;52.67;;;28.27;;
32216;SDS011;67098;51.140;4.088;2024-03-08T06:31:53;58.85;;;28.20;;
32216;SDS011;67098;51.140;4.088;2024-03-08T06:34:19;53.10;;;26.80;;
32216;SDS011;67098;51.140;4.088;2024-03-08T06:36:45;59.85;;;28.00;;
32216;SDS011;67098;51.140;4.088;2024-03-08T06:39:11;53.13;;;28.65;;
32216;SDS011;67098;51.140;4.088;2024-03-08T06:41:36;59.22;;;29.10;;
32216;SDS011;67098;51.140;4.088;2024-03-08T06:44:02;55.35;;;27.77;;
32216;SDS011;67098;51.140;4.088;2024-03-08T06:46:29;56.15;;;29.88;;
32216;SDS011;67098;51.140;4.088;2024-03-08T06:48:55;55.10;;;27.05;;
32216;SDS011;67098;51.140;4.088;2024-03-08T06:51:21;53.67;;;28.80;;
32216;SDS011;67098;51.140;4.088;2024-03-08T06:53:47;53.47;;;28.33;;
32216;SDS011;67098;51.140;4.088;2024-03-08T06:56:14;50.42;;;27.98;;
32216;SDS011;67098;51.140;4.088;2024-03-08T06:58:40;58.88;;;29.20;;
32216;SDS011;67098;51.140;4.088;2024-03-08T07:01:07;56.50;;;28.80;;
32216;SDS011;67098;51.140;4.088;2024-03-08T07:03:39;57.53;;;28.85;;
32216;SDS011;67098;51.140;4.088;2024-03-08T07:06:10;50.38;;;26.52;;
32216;SDS011;67098;51.140;4.088;2024-03-08T07:08:36;53.75;;;27.58;;
32216;SDS011;67098;51.140;4.088;2024-03-08T07:11:02;53.60;;;27.90;;
32216;SDS011;67098;51.140;4.088;2024-03-08T07:13:28;57.72;;;27.75;;
32216;SDS011;67098;51.140;4.088;2024-03-08T07:15:55;58.28;;;27.00;;
32216;SDS011;67098;51.140;4.088;2024-03-08T07:18:21;53.83;;;28.10;;
32216;SDS011;67098;51.140;4.088;2024-03-08T07:20:47;51.08;;;27.45;;
32216;SDS011;67098;51.140;4.088;2024-03-08T07:23:14;53.42;;;27.60;;
32216;SDS011;67098;51.140;4.088;2024-03-08T07:26:00;53.60;;;26.27;;
32216;SDS011;67098;51.140;4.088;2024-03-08T07:28:26;52.58;;;27.27;;
32216;SDS011;67098;51.140;4.088;2024-03-08T07:30:52;55.20;;;27.73;;
32216;SDS011;67098;51.140;4.088;2024-03-08T07:33:26;56.65;;;29.52;;
32216;SDS011;67098;51.140;4.088;2024-03-08T07:35:52;47.58;;;26.52;;
32216;SDS011;67098;51.140;4.088;2024-03-08T07:38:18;62.85;;;26.48;;
32216;SDS011;67098;51.140;4.088;2024-03-08T07:40:46;51.65;;;27.30;;
32216;SDS011;67098;51.140;4.088;2024-03-08T07:43:13;48.80;;;26.85;;
32216;SDS011;67098;51.140;4.088;2024-03-08T07:45:39;52.53;;;26.85;;
32216;SDS011;67098;51.140;4.088;2024-03-08T07:48:05;53.70;;;27.23;;
32216;SDS011;67098;51.140;4.088;2024-03-08T07:50:38;54.53;;;27.17;;
32216;SDS011;67098;51.140;4.088;2024-03-08T07:53:04;51.90;;;26.42;;
32216;SDS011;67098;51.140;4.088;2024-03-08T07:55:33;46.10;;;25.92;;
32216;SDS011;67098;51.140;4.088;2024-03-08T07:58:00;57.95;;;27.48;;
32216;SDS011;67098;51.140;4.088;2024-03-08T08:00:28;50.03;;;25.67;;
32216;SDS011;67098;51.140;4.088;2024-03-08T08:02:55;46.33;;;24.90;;
32216;SDS011;67098;51.140;4.088;2024-03-08T08:05:21;48.28;;;25.23;;
32216;SDS011;67098;51.140;4.088;2024-03-08T08:07:47;48.45;;;24.98;;
32216;SDS011;67098;51.140;4.088;2024-03-08T08:10:13;48.00;;;25.42;;
32216;SDS011;67098;51.140;4.088;2024-03-08T08:12:43;49.35;;;25.50;;
32216;SDS011;67098;51.140;4.088;2024-03-08T08:15:09;47.15;;;25.15;;
32216;SDS011;67098;51.140;4.088;2024-03-08T08:17:35;48.45;;;26.00;;
32216;SDS011;67098;51.140;4.088;2024-03-08T08:20:01;48.53;;;25.60;;
32216;SDS011;67098;51.140;4.088;2024-03-08T08:22:30;48.45;;;24.65;;
32216;SDS011;67098;51.140;4.088;2024-03-08T08:24:56;54.13;;;25.23;;
32216;SDS011;67098;51.140;4.088;2024-03-08T08:27:22;45.40;;;24.45;;
32216;SDS011;67098;51.140;4.088;2024-03-08T08:29:47;48.15;;;25.63;;
32216;SDS011;67098;51.140;4.088;2024-03-08T08:32:14;55.40;;;26.25;;
32216;SDS011;67098;51.140;4.088;2024-03-08T08:34:40;46.38;;;25.95;;
32216;SDS011;67098;51.140;4.088;2024-03-08T08:37:07;46.85;;;23.98;;
32216;SDS011;67098;51.140;4.088;2024-03-08T08:39:35;48.80;;;25.10;;
32216;SDS011;67098;51.140;4.088;2024-03-08T08:42:00;43.60;;;24.42;;
32216;SDS011;67098;51.140;4.088;2024-03-08T08:44:28;48.95;;;25.45;;
32216;SDS011;67098;51.140;4.088;2024-03-08T08:46:56;44.03;;;25.17;;
32216;SDS011;67098;51.140;4.088;2024-03-08T08:49:22;47.13;;;25.33;;
32216;SDS011;67098;51.140;4.088;2024-03-08T08:51:52;45.95;;;25.15;;
32216;SDS011;67098;51.140;4.088;2024-03-08T08:54:18;42.92;;;23.85;;
32216;SDS011;67098;51.140;4.088;2024-03-08T08:56:45;42.03;;;24.45;;
32216;SDS011;67098;51.140;4.088;2024-03-08T08:59:12;45.47;;;24.23;;
32216;SDS011;67098;51.140;4.088;2024-03-08T09:01:44;43.60;;;23.73;;
32216;SDS011;67098;51.140;4.088;2024-03-08T09:04:15;43.30;;;24.30;;
32216;SDS011;67098;51.140;4.088;2024-03-08T09:06:41;43.25;;;22.73;;
32216;SDS011;67098;51.140;4.088;2024-03-08T09:09:07;43.42;;;23.00;;
32216;SDS011;67098;51.140;4.088;2024-03-08T09:14:07;49.70;;;22.52;;
32216;SDS011;67098;51.140;4.088;2024-03-08T09:16:33;44.90;;;23.38;;
32216;SDS011;67098;51.140;4.088;2024-03-08T09:18:59;40.42;;;22.48;;
32216;SDS011;67098;51.140;4.088;2024-03-08T09:21:27;41.08;;;22.50;;
32216;SDS011;67098;51.140;4.088;2024-03-08T09:23:53;40.92;;;23.00;;
32216;SDS011;67098;51.140;4.088;2024-03-08T09:26:19;43.83;;;22.55;;
32216;SDS011;67098;51.140;4.088;2024-03-08T09:28:45;45.30;;;23.55;;
32216;SDS011;67098;51.140;4.088;2024-03-08T09:31:11;44.67;;;24.20;;
32216;SDS011;67098;51.140;4.088;2024-03-08T09:33:37;42.33;;;22.42;;
32216;SDS011;67098;51.140;4.088;2024-03-08T09:36:05;41.80;;;22.67;;
32216;SDS011;67098;51.140;4.088;2024-03-08T09:38:32;40.50;;;23.52;;
32216;SDS011;67098;51.140;4.088;2024-03-08T09:41:01;43.75;;;21.80;;
32216;SDS011;67098;51.140;4.088;2024-03-08T09:43:29;40.10;;;22.77;;
32216;SDS011;67098;51.140;4.088;2024-03-08T09:45:55;38.15;;;21.55;;
32216;SDS011;67098;51.140;4.088;2024-03-08T09:48:22;43.33;;;21.35;;
32216;SDS011;67098;51.140;4.088;2024-03-08T09:50:51;39.42;;;21.30;;
32216;SDS011;67098;51.140;4.088;2024-03-08T09:53:17;40.90;;;20.92;;
32216;SDS011;67098;51.140;4.088;2024-03-08T09:55:43;41.13;;;23.00;;
32216;SDS011;67098;51.140;4.088;2024-03-08T09:58:15;40.28;;;20.70;;
32216;SDS011;67098;51.140;4.088;2024-03-08T10:00:45;36.70;;;20.17;;
32216;SDS011;67098;51.140;4.088;2024-03-08T10:03:12;43.47;;;20.98;;
32216;SDS011;67098;51.140;4.088;2024-03-08T10:05:40;37.38;;;20.50;;
32216;SDS011;67098;51.140;4.088;2024-03-08T10:08:06;38.95;;;20.95;;
32216;SDS011;67098;51.140;4.088;2024-03-08T10:10:35;36.20;;;20.58;;
32216;SDS011;67098;51.140;4.088;2024-03-08T10:13:07;36.15;;;20.98;;
32216;SDS011;67098;51.140;4.088;2024-03-08T10:15:34;40.63;;;21.98;;
32216;SDS011;67098;51.140;4.088;2024-03-08T10:18:01;36.97;;;20.33;;
32216;SDS011;67098;51.140;4.088;2024-03-08T10:20:28;36.17;;;20.48;;
32216;SDS011;67098;51.140;4.088;2024-03-08T10:23:02;36.40;;;20.83;;
32216;SDS011;67098;51.140;4.088;2024-03-08T10:25:30;36.10;;;20.45;;
32216;SDS011;67098;51.140;4.088;2024-03-08T10:27:56;36.15;;;21.38;;
32216;SDS011;67098;51.140;4.088;2024-03-08T10:30:22;34.13;;;19.88;;
32216;SDS011;67098;51.140;4.088;2024-03-08T10:32:49;35.17;;;19.98;;
32216;SDS011;67098;51.140;4.088;2024-03-08T10:35:14;34.53;;;19.70;;
32216;SDS011;67098;51.140;4.088;2024-03-08T10:37:48;33.63;;;18.52;;
32216;SDS011;67098;51.140;4.088;2024-03-08T10:40:22;34.30;;;19.50;;
32216;SDS011;67098;51.140;4.088;2024-03-08T10:42:51;30.02;;;19.25;;
32216;SDS011;67098;51.140;4.088;2024-03-08T10:45:23;35.20;;;18.85;;
32216;SDS011;67098;51.140;4.088;2024-03-08T10:50:47;31.95;;;18.45;;
32216;SDS011;67098;51.140;4.088;2024-03-08T10:53:15;30.83;;;18.08;;
32216;SDS011;67098;51.140;4.088;2024-03-08T10:55:43;28.70;;;18.48;;
32216;SDS011;67098;51.140;4.088;2024-03-08T10:58:09;31.38;;;18.65;;
32216;SDS011;67098;51.140;4.088;2024-03-08T11:00:36;30.30;;;17.92;;
32216;SDS011;67098;51.140;4.088;2024-03-08T11:03:02;31.38;;;17.83;;
32216;SDS011;67098;51.140;4.088;2024-03-08T11:05:40;27.58;;;16.90;;
32216;SDS011;67098;51.140;4.088;2024-03-08T11:08:19;30.38;;;16.73;;
32216;SDS011;67098;51.140;4.088;2024-03-08T11:13:35;29.67;;;16.90;;
32216;SDS011;67098;51.140;4.088;2024-03-08T11:16:36;25.60;;;16.52;;
32216;SDS011;67098;51.140;4.088;2024-03-08T11:18:59;28.17;;;17.48;;
32216;SDS011;67098;51.140;4.088;2024-03-08T11:21:45;27.63;;;16.77;;
32216;SDS011;67098;51.140;4.088;2024-03-08T11:24:14;25.80;;;16.55;;
32216;SDS011;67098;51.140;4.088;2024-03-08T11:26:41;27.50;;;16.57;;
32216;SDS011;67098;51.140;4.088;2024-03-08T11:34:35;29.38;;;17.23;;
32216;SDS011;67098;51.140;4.088;2024-03-08T11:37:05;30.58;;;16.83;;
32216;SDS011;67098;51.140;4.088;2024-03-08T11:39:38;26.45;;;16.92;;
32216;SDS011;67098;51.140;4.088;2024-03-08T11:42:05;25.75;;;15.43;;
32216;SDS011;67098;51.140;4.088;2024-03-08T11:44:31;26.25;;;15.32;;
32216;SDS011;67098;51.140;4.088;2024-03-08T11:47:00;33.92;;;17.67;;
32216;SDS011;67098;51.140;4.088;2024-03-08T11:49:26;29.08;;;17.10;;
32216;SDS011;67098;51.140;4.088;2024-03-08T11:51:52;23.88;;;16.13;;
32216;SDS011;67098;51.140;4.088;2024-03-08T11:54:18;25.50;;;15.98;;
32216;SDS011;67098;51.140;4.088;2024-03-08T11:56:45;29.25;;;17.75;;
32216;SDS011;67098;51.140;4.088;2024-03-08T11:59:13;25.63;;;16.95;;
32216;SDS011;67098;51.140;4.088;2024-03-08T12:01:39;26.02;;;16.13;;
32216;SDS011;67098;51.140;4.088;2024-03-08T12:04:06;25.00;;;15.77;;
32216;SDS011;67098;51.140;4.088;2024-03-08T12:06:38;25.15;;;15.68;;
32216;SDS011;67098;51.140;4.088;2024-03-08T12:09:08;29.13;;;15.98;;
32216;SDS011;67098;51.140;4.088;2024-03-08T12:11:35;25.52;;;16.42;;
32216;SDS011;67098;51.140;4.088;2024-03-08T12:14:02;24.05;;;15.73;;
32216;SDS011;67098;51.140;4.088;2024-03-08T12:16:28;28.95;;;16.48;;
32216;SDS011;67098;51.140;4.088;2024-03-08T12:19:07;25.60;;;15.38;;
32216;SDS011;67098;51.140;4.088;2024-03-08T12:21:34;27.50;;;16.40;;
32216;SDS011;67098;51.140;4.088;2024-03-08T12:24:04;24.58;;;15.43;;
32216;SDS011;67098;51.140;4.088;2024-03-08T12:26:36;26.40;;;16.73;;
32216;SDS011;67098;51.140;4.088;2024-03-08T12:31:52;29.40;;;17.77;;
32216;SDS011;67098;51.140;4.088;2024-03-08T12:34:23;26.48;;;16.70;;
32216;SDS011;67098;51.140;4.088;2024-03-08T12:36:50;29.23;;;16.90;;
32216;SDS011;67098;51.140;4.088;2024-03-08T12:39:19;25.27;;;15.63;;
32216;SDS011;67098;51.140;4.088;2024-03-08T12:41:51;26.73;;;15.88;;
32216;SDS011;67098;51.140;4.088;2024-03-08T12:44:18;24.30;;;15.80;;
32216;SDS011;67098;51.140;4.088;2024-03-08T12:46:46;29.75;;;16.02;;
32216;SDS011;67098;51.140;4.088;2024-03-08T12:49:13;23.23;;;16.10;;
32216;SDS011;67098;51.140;4.088;2024-03-08T12:51:45;24.58;;;16.88;;
32216;SDS011;67098;51.140;4.088;2024-03-08T12:54:11;26.90;;;16.05;;
32216;SDS011;67098;51.140;4.088;2024-03-08T12:56:37;25.75;;;15.02;;
32216;SDS011;67098;51.140;4.088;2024-03-08T12:59:05;29.48;;;16.17;;
32216;SDS011;67098;51.140;4.088;2024-03-08T13:01:33;25.73;;;16.45;;
32216;SDS011;67098;51.140;4.088;2024-03-08T13:04:02;25.05;;;16.08;;
32216;SDS011;67098;51.140;4.088;2024-03-08T13:06:29;26.00;;;16.23;;
32216;SDS011;67098;51.140;4.088;2024-03-08T13:08:56;24.45;;;15.68;;
32216;SDS011;67098;51.140;4.088;2024-03-08T13:11:23;24.05;;;15.90;;
32216;SDS011;67098;51.140;4.088;2024-03-08T13:13:50;22.63;;;14.60;;
32216;SDS011;67098;51.140;4.088;2024-03-08T13:16:18;27.10;;;16.80;;
32216;SDS011;67098;51.140;4.088;2024-03-08T13:18:44;25.80;;;14.85;;
32216;SDS011;67098;51.140;4.088;2024-03-08T13:21:13;26.00;;;15.75;;
32216;SDS011;67098;51.140;4.088;2024-03-08T13:23:42;26.85;;;15.52;;
32216;SDS011;67098;51.140;4.088;2024-03-08T13:26:13;26.27;;;16.65;;
32216;SDS011;67098;51.140;4.088;2024-03-08T13:28:43;24.92;;;16.58;;
32216;SDS011;67098;51.140;4.088;2024-03-08T13:31:14;27.75;;;16.02;;
32216;SDS011;67098;51.140;4.088;2024-03-08T13:33:40;27.77;;;16.80;;
32216;SDS011;67098;51.140;4.088;2024-03-08T13:36:07;24.30;;;16.17;;
32216;SDS011;67098;51.140;4.088;2024-03-08T13:38:46;25.60;;;16.20;;
32216;SDS011;67098;51.140;4.088;2024-03-08T13:41:13;25.50;;;16.77;;
32216;SDS011;67098;51.140;4.088;2024-03-08T13:43:42;28.77;;;16.60;;
32216;SDS011;67098;51.140;4.088;2024-03-08T13:46:08;24.92;;;15.75;;
32216;SDS011;67098;51.140;4.088;2024-03-08T13:48:36;24.30;;;15.18;;
32216;SDS011;67098;51.140;4.088;2024-03-08T13:51:06;25.55;;;17.55;;
32216;SDS011;67098;51.140;4.088;2024-03-08T13:53:33;28.35;;;17.10;;
32216;SDS011;67098;51.140;4.088;2024-03-08T13:56:02;25.65;;;17.10;;
32216;SDS011;67098;51.140;4.088;2024-03-08T13:58:29;24.10;;;17.17;;
32216;SDS011;67098;51.140;4.088;2024-03-08T14:00:54;27.75;;;16.13;;
32216;SDS011;67098;51.140;4.088;2024-03-08T14:03:20;25.95;;;17.15;;
32216;SDS011;67098;51.140;4.088;2024-03-08T14:05:47;28.73;;;17.70;;
32216;SDS011;67098;51.140;4.088;2024-03-08T14:08:13;26.52;;;16.45;;
32216;SDS011;67098;51.140;4.088;2024-03-08T14:10:41;30.08;;;17.33;;
32216;SDS011;67098;51.140;4.088;2024-03-08T14:13:07;29.42;;;16.50;;
32216;SDS011;67098;51.140;4.088;2024-03-08T14:15:33;29.58;;;17.27;;
32216;SDS011;67098;51.140;4.088;2024-03-08T14:18:00;27.90;;;17.90;;
32216;SDS011;67098;51.140;4.088;2024-03-08T14:20:26;25.83;;;17.20;;
32216;SDS011;67098;51.140;4.088;2024-03-08T14:22:53;27.90;;;17.52;;
32216;SDS011;67098;51.140;4.088;2024-03-08T14:25:22;33.25;;;18.25;;
32216;SDS011;67098;51.140;4.088;2024-03-08T14:27:52;31.48;;;18.08;;
32216;SDS011;67098;51.140;4.088;2024-03-08T14:30:19;27.35;;;17.60;;
32216;SDS011;67098;51.140;4.088;2024-03-08T14:33:07;32.65;;;16.83;;
32216;SDS011;67098;51.140;4.088;2024-03-08T14:35:39;27.70;;;17.10;;
32216;SDS011;67098;51.140;4.088;2024-03-08T14:38:06;25.23;;;17.13;;
32216;SDS011;67098;51.140;4.088;2024-03-08T14:40:39;27.10;;;18.10;;